CST,Max TemperatureF,Mean TemperatureF,Min TemperatureF,Max Dew PointF,MeanDew PointF,Min DewpointF,Max Humidity, Mean Humidity, Min Humidity, Max Sea Level PressureIn, Mean Sea Level PressureIn, Min Sea Level PressureIn, Max VisibilityMiles, Mean VisibilityMiles, Min VisibilityMiles, Max Wind SpeedMPH, Mean Wind SpeedMPH, Max Gust SpeedMPH,PrecipitationIn, CloudCover, Events, WindDirDegrees
2013-1-1,21,14,8,10,6,1,79,65,50,30.31,30.23,30.16,10,10,10,9,5,16,0.00,2,,349
2013-1-2,32,20,8,21,12,1,79,69,59,30.23,30.15,30.08,10,10,10,14,7,18,0.00,2,,212
2013-1-3,33,24,14,27,19,7,80,72,63,30.38,30.28,30.16,10,10,7,13,7,18,0.00,5,Snow,279
2013-1-4,37,24,12,23,17,7,80,69,52,30.35,30.29,30.24,10,10,10,16,7,22,0.00,0,,223
2013-1-5,39,32,24,30,25,18,81,74,69,30.23,30.13,30.02,10,10,3,21,8,26,0.00,4,Rain-Snow,213
2013-1-6,33,28,24,21,17,10,74,62,38,30.33,30.23,30.05,10,10,7,18,11,24,0.00,2,,271
2013-1-7,42,33,24,27,22,18,74,63,49,30.31,30.18,30.08,10,10,10,18,9,23,0.00,0,,191
2013-1-8,46,40,33,30,26,25,70,58,46,30.11,30.06,29.99,10,10,10,14,8,21,0.00,1,,193
2013-1-9,51,42,32,34,28,23,80,61,37,30.47,30.34,30.09,10,10,10,14,9,18,0.00,0,,274
2013-1-10,44,38,33,39,31,25,87,75,56,30.43,30.11,29.76,10,6,0,16,8,17,0.54,5,Rain,114
2013-1-11,59,50,42,48,43,37,87,74,59,29.77,29.70,29.62,10,6,0,20,10,30,0.00,4,,193
2013-1-12,55,39,23,45,26,18,80,67,50,30.05,29.93,29.68,10,8,1,21,12,31,0.00,4,Snow,302
2013-1-13,23,18,12,18,9,5,80,66,54,30.32,30.15,29.97,10,10,7,17,9,21,0.00,4,Snow,306
2013-1-14,26,17,8,10,6,1,79,64,34,30.50,30.43,30.32,10,10,10,7,0,,0.01,0,,106
2013-1-15,28,19,10,12,9,3,85,66,34,30.42,30.32,30.15,10,10,5,7,1,,0.00,1,,144
2013-1-16,41,26,12,27,18,7,80,65,42,30.14,30.03,29.92,10,10,10,18,8,22,0.00,2,,224
2013-1-17,37,30,24,30,19,10,75,60,36,30.44,30.35,30.13,10,10,10,14,7,20,0.00,2,,327
2013-1-18,53,40,26,28,25,18,74,56,35,30.43,30.18,29.99,10,10,10,25,11,33,0.00,0,,204
2013-1-19,55,45,33,34,29,16,70,52,31,30.18,29.96,29.85,10,10,10,21,13,33,0.00,0,,253
2013-1-20,30,22,14,18,7,1,74,58,42,30.38,30.33,30.20,10,10,5,21,11,29,0.00,4,Snow,321
2013-1-21,14,11,8,7,-4,-15,79,54,29,30.40,30.35,30.31,10,10,10,20,11,28,0.00,1,,300
2013-1-22,17,10,3,5,-3,-8,73,52,32,30.46,30.39,30.35,10,10,10,6,0,,0.00,5,,277
2013-1-23,39,26,12,16,8,0,79,53,33,30.44,30.26,30.13,10,10,10,18,4,26,0.00,1,,303
2013-1-24,24,17,10,9,0,-6,62,48,28,30.62,30.47,30.25,10,10,10,16,10,20,0.00,1,,87
2013-1-25,44,34,21,21,13,7,64,48,25,30.26,30.14,30.06,10,10,7,16,7,23,0.00,3,,275
2013-1-26,35,24,12,16,9,3,73,53,30,30.40,30.32,30.26,10,10,10,12,6,,0.00,0,,91
2013-1-27,46,37,28,43,28,16,87,77,59,30.26,30.02,29.83,10,5,1,15,10,18,0.33,6,Rain,137
2013-1-28,62,54,46,55,45,43,87,81,72,29.93,29.84,29.71,10,3,0,17,8,25,0.01,8,Rain,137
2013-1-29,62,48,35,55,46,30,88,80,72,29.71,29.57,29.45,10,8,0,22,12,28,0.99,6,Rain,236
2013-1-30,35,27,19,30,23,12,87,77,63,29.85,29.57,29.34,10,6,1,24,11,37,0.19,7,Rain-Snow,310
2013-1-31,24,15,6,16,5,-4,80,66,57,30.36,30.07,29.85,10,9,2,22,14,30,0.00,6,Snow,290